sensor_id;sensor_type;location;lat;lon;timestamp;P1;durP1;ratioP1;P2;durP2;ratioP2
15006;SDS011;7599;50.748;13.142;2023-12-20T00:00:38;0.93;;;0.30;;
15006;SDS011;7599;50.748;13.142;2023-12-20T00:03:40;0.50;;;0.38;;
15006;SDS011;7599;50.748;13.142;2023-12-20T00:06:43;0.55;;;0.40;;
15006;SDS011;7599;50.748;13.142;2023-12-20T00:09:46;0.70;;;0.43;;
15006;SDS011;7599;50.748;13.142;2023-12-20T00:12:48;0.50;;;0.30;;
15006;SDS011;7599;50.748;13.142;2023-12-20T00:15:53;0.68;;;0.40;;
15006;SDS011;7599;50.748;13.142;2023-12-20T00:18:58;0.85;;;0.52;;
15006;SDS011;7599;50.748;13.142;2023-12-20T00:22:01;0.90;;;0.40;;
15006;SDS011;7599;50.748;13.142;2023-12-20T00:28:06;0.50;;;0.40;;
15006;SDS011;7599;50.748;13.142;2023-12-20T00:34:13;0.55;;;0.28;;
15006;SDS011;7599;50.748;13.142;2023-12-20T00:40:18;0.52;;;0.40;;
15006;SDS011;7599;50.748;13.142;2023-12-20T00:43:22;0.60;;;0.40;;
15006;SDS011;7599;50.748;13.142;2023-12-20T00:46:26;0.68;;;0.30;;
15006;SDS011;7599;50.748;13.142;2023-12-20T00:49:28;0.40;;;0.40;;
15006;SDS011;7599;50.748;13.142;2023-12-20T00:52:31;0.75;;;0.38;;
15006;SDS011;7599;50.748;13.142;2023-12-20T00:58:36;0.40;;;0.20;;
15006;SDS011;7599;50.748;13.142;2023-12-20T01:01:40;0.88;;;0.30;;
15006;SDS011;7599;50.748;13.142;2023-12-20T01:04:43;0.40;;;0.30;;
15006;SDS011;7599;50.748;13.142;2023-12-20T01:10:49;0.57;;;0.30;;
15006;SDS011;7599;50.748;13.142;2023-12-20T01:13:51;0.32;;;0.30;;
15006;SDS011;7599;50.748;13.142;2023-12-20T01:16:55;1.02;;;0.45;;
15006;SDS011;7599;50.748;13.142;2023-12-20T01:19:58;0.57;;;0.43;;
15006;SDS011;7599;50.748;13.142;2023-12-20T01:26:03;0.52;;;0.40;;
15006;SDS011;7599;50.748;13.142;2023-12-20T01:29:06;0.35;;;0.30;;
15006;SDS011;7599;50.748;13.142;2023-12-20T01:35:13;0.30;;;0.22;;
15006;SDS011;7599;50.748;13.142;2023-12-20T01:38:16;0.60;;;0.40;;
15006;SDS011;7599;50.748;13.142;2023-12-20T01:41:19;0.60;;;0.30;;
15006;SDS011;7599;50.748;13.142;2023-12-20T01:44:22;0.88;;;0.40;;
15006;SDS011;7599;50.748;13.142;2023-12-20T01:47:27;1.15;;;0.20;;
15006;SDS011;7599;50.748;13.142;2023-12-20T01:50:30;0.60;;;0.32;;
15006;SDS011;7599;50.748;13.142;2023-12-20T01:53:34;1.50;;;0.43;;
15006;SDS011;7599;50.748;13.142;2023-12-20T01:56:37;0.70;;;0.40;;
15006;SDS011;7599;50.748;13.142;2023-12-20T01:59:41;0.40;;;0.20;;
15006;SDS011;7599;50.748;13.142;2023-12-20T02:05:48;0.40;;;0.30;;
15006;SDS011;7599;50.748;13.142;2023-12-20T02:11:53;0.52;;;0.30;;
15006;SDS011;7599;50.748;13.142;2023-12-20T02:14:56;0.50;;;0.30;;
15006;SDS011;7599;50.748;13.142;2023-12-20T02:21:03;0.70;;;0.38;;
15006;SDS011;7599;50.748;13.142;2023-12-20T02:24:08;1.30;;;0.40;;
15006;SDS011;7599;50.748;13.142;2023-12-20T02:27:10;1.38;;;0.30;;
15006;SDS011;7599;50.748;13.142;2023-12-20T02:30:14;0.40;;;0.30;;
15006;SDS011;7599;50.748;13.142;2023-12-20T02:33:16;0.30;;;0.20;;
15006;SDS011;7599;50.748;13.142;2023-12-20T02:36:19;0.30;;;0.30;;
15006;SDS011;7599;50.748;13.142;2023-12-20T02:39:23;0.93;;;0.35;;
15006;SDS011;7599;50.748;13.142;2023-12-20T02:42:25;1.15;;;0.63;;
15006;SDS011;7599;50.748;13.142;2023-12-20T02:45:28;0.63;;;0.30;;
15006;SDS011;7599;50.748;13.142;2023-12-20T02:48:30;0.73;;;0.40;;
15006;SDS011;7599;50.748;13.142;2023-12-20T02:51:33;0.73;;;0.30;;
15006;SDS011;7599;50.748;13.142;2023-12-20T02:54:37;0.57;;;0.40;;
15006;SDS011;7599;50.748;13.142;2023-12-20T02:57:39;0.82;;;0.40;;
15006;SDS011;7599;50.748;13.142;2023-12-20T03:00:43;1.65;;;0.47;;
15006;SDS011;7599;50.748;13.142;2023-12-20T03:06:48;1.08;;;0.30;;
15006;SDS011;7599;50.748;13.142;2023-12-20T03:09:52;0.30;;;0.20;;
15006;SDS011;7599;50.748;13.142;2023-12-20T03:13:15;0.32;;;0.30;;
15006;SDS011;7599;50.748;13.142;2023-12-20T03:16:17;1.38;;;0.40;;
15006;SDS011;7599;50.748;13.142;2023-12-20T03:19:20;0.22;;;0.20;;
15006;SDS011;7599;50.748;13.142;2023-12-20T03:22:22;0.60;;;0.38;;
15006;SDS011;7599;50.748;13.142;2023-12-20T03:25:27;0.20;;;0.20;;
15006;SDS011;7599;50.748;13.142;2023-12-20T03:28:30;0.75;;;0.30;;
15006;SDS011;7599;50.748;13.142;2023-12-20T03:31:33;0.40;;;0.20;;
15006;SDS011;7599;50.748;13.142;2023-12-20T03:37:38;0.47;;;0.20;;
15006;SDS011;7599;50.748;13.142;2023-12-20T03:40:42;0.20;;;0.20;;
15006;SDS011;7599;50.748;13.142;2023-12-20T03:43:44;1.38;;;0.30;;
15006;SDS011;7599;50.748;13.142;2023-12-20T03:49:50;2.63;;;0.50;;
15006;SDS011;7599;50.748;13.142;2023-12-20T03:52:52;0.45;;;0.38;;
15006;SDS011;7599;50.748;13.142;2023-12-20T03:55:56;0.88;;;0.32;;
15006;SDS011;7599;50.748;13.142;2023-12-20T03:58:59;0.43;;;0.20;;
15006;SDS011;7599;50.748;13.142;2023-12-20T04:02:01;0.40;;;0.22;;
15006;SDS011;7599;50.748;13.142;2023-12-20T04:05:04;0.50;;;0.30;;
15006;SDS011;7599;50.748;13.142;2023-12-20T04:08:07;0.10;;;0.10;;
15006;SDS011;7599;50.748;13.142;2023-12-20T04:11:11;1.08;;;0.20;;
15006;SDS011;7599;50.748;13.142;2023-12-20T04:14:15;0.32;;;0.22;;
15006;SDS011;7599;50.748;13.142;2023-12-20T04:17:18;1.17;;;0.30;;
15006;SDS011;7599;50.748;13.142;2023-12-20T04:20:20;1.15;;;0.30;;
15006;SDS011;7599;50.748;13.142;2023-12-20T04:23:23;1.48;;;0.30;;
15006;SDS011;7599;50.748;13.142;2023-12-20T04:26:27;0.30;;;0.20;;
15006;SDS011;7599;50.748;13.142;2023-12-20T04:29:30;0.25;;;0.22;;
15006;SDS011;7599;50.748;13.142;2023-12-20T04:35:40;0.82;;;0.30;;
15006;SDS011;7599;50.748;13.142;2023-12-20T04:38:44;0.30;;;0.22;;
15006;SDS011;7599;50.748;13.142;2023-12-20T04:41:48;0.30;;;0.20;;
15006;SDS011;7599;50.748;13.142;2023-12-20T04:44:51;0.40;;;0.30;;
15006;SDS011;7599;50.748;13.142;2023-12-20T04:50:57;0.50;;;0.20;;
15006;SDS011;7599;50.748;13.142;2023-12-20T04:53:59;0.57;;;0.30;;
15006;SDS011;7599;50.748;13.142;2023-12-20T04:57:04;0.50;;;0.20;;
15006;SDS011;7599;50.748;13.142;2023-12-20T05:00:06;0.22;;;0.15;;
15006;SDS011;7599;50.748;13.142;2023-12-20T05:03:10;1.23;;;0.30;;
15006;SDS011;7599;50.748;13.142;2023-12-20T05:06:13;0.30;;;0.22;;
15006;SDS011;7599;50.748;13.142;2023-12-20T05:09:16;0.50;;;0.20;;
15006;SDS011;7599;50.748;13.142;2023-12-20T05:12:20;0.70;;;0.45;;
15006;SDS011;7599;50.748;13.142;2023-12-20T05:15:23;0.20;;;0.20;;
15006;SDS011;7599;50.748;13.142;2023-12-20T05:18:25;0.38;;;0.30;;
15006;SDS011;7599;50.748;13.142;2023-12-20T05:21:28;0.88;;;0.20;;
15006;SDS011;7599;50.748;13.142;2023-12-20T05:24:32;0.13;;;0.13;;
15006;SDS011;7599;50.748;13.142;2023-12-20T05:27:36;0.55;;;0.20;;
15006;SDS011;7599;50.748;13.142;2023-12-20T05:30:38;0.40;;;0.30;;
15006;SDS011;7599;50.748;13.142;2023-12-20T05:36:45;0.70;;;0.30;;
15006;SDS011;7599;50.748;13.142;2023-12-20T05:39:48;0.50;;;0.30;;
15006;SDS011;7599;50.748;13.142;2023-12-20T05:42:52;0.40;;;0.20;;
15006;SDS011;7599;50.748;13.142;2023-12-20T05:45:54;0.70;;;0.30;;
15006;SDS011;7599;50.748;13.142;2023-12-20T05:48:57;0.28;;;0.15;;
15006;SDS011;7599;50.748;13.142;2023-12-20T05:51:59;0.32;;;0.20;;
15006;SDS011;7599;50.748;13.142;2023-12-20T05:55:02;0.22;;;0.17;;
15006;SDS011;7599;50.748;13.142;2023-12-20T05:58:06;1.13;;;0.13;;
15006;SDS011;7599;50.748;13.142;2023-12-20T06:01:09;1.00;;;0.30;;
15006;SDS011;7599;50.748;13.142;2023-12-20T06:07:14;0.40;;;0.20;;
15006;SDS011;7599;50.748;13.142;2023-12-20T06:10:17;0.38;;;0.22;;
15006;SDS011;7599;50.748;13.142;2023-12-20T06:13:23;0.40;;;0.20;;
15006;SDS011;7599;50.748;13.142;2023-12-20T06:16:26;0.28;;;0.28;;
15006;SDS011;7599;50.748;13.142;2023-12-20T06:19:28;0.40;;;0.20;;
15006;SDS011;7599;50.748;13.142;2023-12-20T06:25:33;0.38;;;0.30;;
15006;SDS011;7599;50.748;13.142;2023-12-20T06:28:37;0.98;;;0.40;;
15006;SDS011;7599;50.748;13.142;2023-12-20T06:31:42;0.20;;;0.20;;
15006;SDS011;7599;50.748;13.142;2023-12-20T06:37:47;0.52;;;0.20;;
15006;SDS011;7599;50.748;13.142;2023-12-20T06:43:54;0.17;;;0.17;;
15006;SDS011;7599;50.748;13.142;2023-12-20T06:46:56;0.40;;;0.20;;
15006;SDS011;7599;50.748;13.142;2023-12-20T06:49:59;0.32;;;0.30;;
15006;SDS011;7599;50.748;13.142;2023-12-20T06:53:02;0.77;;;0.30;;
15006;SDS011;7599;50.748;13.142;2023-12-20T06:56:08;0.20;;;0.20;;
15006;SDS011;7599;50.748;13.142;2023-12-20T06:59:17;0.38;;;0.20;;
15006;SDS011;7599;50.748;13.142;2023-12-20T07:02:20;0.38;;;0.20;;
15006;SDS011;7599;50.748;13.142;2023-12-20T07:05:23;0.30;;;0.25;;
15006;SDS011;7599;50.748;13.142;2023-12-20T07:08:26;0.40;;;0.20;;
15006;SDS011;7599;50.748;13.142;2023-12-20T07:17:35;0.57;;;0.10;;
15006;SDS011;7599;50.748;13.142;2023-12-20T07:20:37;0.45;;;0.25;;
15006;SDS011;7599;50.748;13.142;2023-12-20T07:23:40;0.20;;;0.20;;
15006;SDS011;7599;50.748;13.142;2023-12-20T07:26:42;0.40;;;0.20;;
15006;SDS011;7599;50.748;13.142;2023-12-20T07:29:46;2.17;;;0.30;;
15006;SDS011;7599;50.748;13.142;2023-12-20T07:32:49;0.82;;;0.55;;
15006;SDS011;7599;50.748;13.142;2023-12-20T07:38:54;0.52;;;0.20;;
15006;SDS011;7599;50.748;13.142;2023-12-20T07:41:57;0.80;;;0.20;;
15006;SDS011;7599;50.748;13.142;2023-12-20T07:45:00;1.45;;;0.43;;
15006;SDS011;7599;50.748;13.142;2023-12-20T07:48:03;10.32;;;0.63;;
15006;SDS011;7599;50.748;13.142;2023-12-20T07:51:06;1.48;;;0.20;;
15006;SDS011;7599;50.748;13.142;2023-12-20T07:54:11;0.75;;;0.50;;
15006;SDS011;7599;50.748;13.142;2023-12-20T07:57:13;1.55;;;0.40;;
15006;SDS011;7599;50.748;13.142;2023-12-20T08:00:17;2.70;;;0.73;;
15006;SDS011;7599;50.748;13.142;2023-12-20T08:03:20;1.20;;;0.60;;
15006;SDS011;7599;50.748;13.142;2023-12-20T08:09:25;1.25;;;0.40;;
15006;SDS011;7599;50.748;13.142;2023-12-20T08:12:28;2.22;;;0.60;;
15006;SDS011;7599;50.748;13.142;2023-12-20T08:15:32;2.40;;;0.63;;
15006;SDS011;7599;50.748;13.142;2023-12-20T08:18:34;4.68;;;1.20;;
15006;SDS011;7599;50.748;13.142;2023-12-20T08:24:40;1.95;;;0.65;;
15006;SDS011;7599;50.748;13.142;2023-12-20T08:27:42;2.63;;;0.68;;
15006;SDS011;7599;50.748;13.142;2023-12-20T08:30:47;3.03;;;0.80;;
15006;SDS011;7599;50.748;13.142;2023-12-20T08:33:50;3.92;;;1.02;;
15006;SDS011;7599;50.748;13.142;2023-12-20T08:36:54;1.77;;;0.82;;
15006;SDS011;7599;50.748;13.142;2023-12-20T08:39:56;2.50;;;0.60;;
15006;SDS011;7599;50.748;13.142;2023-12-20T08:42:59;2.00;;;0.80;;
15006;SDS011;7599;50.748;13.142;2023-12-20T08:46:03;0.98;;;0.60;;
15006;SDS011;7599;50.748;13.142;2023-12-20T08:49:05;1.88;;;0.70;;
15006;SDS011;7599;50.748;13.142;2023-12-20T08:52:08;3.03;;;1.02;;
15006;SDS011;7599;50.748;13.142;2023-12-20T08:58:14;2.42;;;0.88;;
15006;SDS011;7599;50.748;13.142;2023-12-20T09:01:18;1.65;;;0.73;;
15006;SDS011;7599;50.748;13.142;2023-12-20T09:04:20;3.05;;;1.10;;
15006;SDS011;7599;50.748;13.142;2023-12-20T09:07:23;1.80;;;0.68;;
15006;SDS011;7599;50.748;13.142;2023-12-20T09:10:26;1.10;;;0.60;;
15006;SDS011;7599;50.748;13.142;2023-12-20T09:13:28;2.35;;;0.75;;
15006;SDS011;7599;50.748;13.142;2023-12-20T09:16:34;2.22;;;0.82;;
15006;SDS011;7599;50.748;13.142;2023-12-20T09:19:37;2.92;;;0.90;;
15006;SDS011;7599;50.748;13.142;2023-12-20T09:22:40;0.95;;;0.60;;
15006;SDS011;7599;50.748;13.142;2023-12-20T09:25:43;1.65;;;0.75;;
15006;SDS011;7599;50.748;13.142;2023-12-20T09:31:49;1.08;;;0.70;;
15006;SDS011;7599;50.748;13.142;2023-12-20T09:34:52;1.58;;;0.93;;
15006;SDS011;7599;50.748;13.142;2023-12-20T09:37:54;1.63;;;0.63;;
15006;SDS011;7599;50.748;13.142;2023-12-20T09:40:57;4.60;;;0.82;;
15006;SDS011;7599;50.748;13.142;2023-12-20T09:43:59;1.67;;;0.43;;
15006;SDS011;7599;50.748;13.142;2023-12-20T09:47:06;1.98;;;0.60;;
15006;SDS011;7599;50.748;13.142;2023-12-20T09:50:09;1.42;;;0.60;;
15006;SDS011;7599;50.748;13.142;2023-12-20T09:53:12;2.45;;;0.40;;
15006;SDS011;7599;50.748;13.142;2023-12-20T09:56:17;0.82;;;0.52;;
15006;SDS011;7599;50.748;13.142;2023-12-20T09:59:20;1.00;;;0.70;;
15006;SDS011;7599;50.748;13.142;2023-12-20T10:05:29;3.08;;;0.70;;
15006;SDS011;7599;50.748;13.142;2023-12-20T10:08:33;1.40;;;0.63;;
15006;SDS011;7599;50.748;13.142;2023-12-20T10:14:39;0.88;;;0.50;;
15006;SDS011;7599;50.748;13.142;2023-12-20T10:17:43;2.05;;;1.02;;
15006;SDS011;7599;50.748;13.142;2023-12-20T10:20:45;1.75;;;0.70;;
15006;SDS011;7599;50.748;13.142;2023-12-20T10:23:48;1.83;;;0.82;;
15006;SDS011;7599;50.748;13.142;2023-12-20T10:27:00;1.13;;;0.55;;
15006;SDS011;7599;50.748;13.142;2023-12-20T10:30:05;3.85;;;0.88;;
15006;SDS011;7599;50.748;13.142;2023-12-20T10:33:10;2.63;;;0.90;;
15006;SDS011;7599;50.748;13.142;2023-12-20T10:36:13;3.22;;;0.60;;
15006;SDS011;7599;50.748;13.142;2023-12-20T10:42:21;3.47;;;0.60;;
15006;SDS011;7599;50.748;13.142;2023-12-20T10:45:24;2.53;;;0.70;;
15006;SDS011;7599;50.748;13.142;2023-12-20T10:48:28;1.25;;;0.60;;
15006;SDS011;7599;50.748;13.142;2023-12-20T10:51:34;7.97;;;0.77;;
15006;SDS011;7599;50.748;13.142;2023-12-20T10:54:36;2.10;;;0.60;;
15006;SDS011;7599;50.748;13.142;2023-12-20T10:57:39;3.50;;;0.70;;
15006;SDS011;7599;50.748;13.142;2023-12-20T11:00:42;3.85;;;1.15;;
15006;SDS011;7599;50.748;13.142;2023-12-20T11:03:49;1.20;;;0.57;;
15006;SDS011;7599;50.748;13.142;2023-12-20T11:06:56;1.85;;;0.63;;
15006;SDS011;7599;50.748;13.142;2023-12-20T11:10:09;1.30;;;0.70;;
15006;SDS011;7599;50.748;13.142;2023-12-20T11:13:16;1.50;;;0.68;;
15006;SDS011;7599;50.748;13.142;2023-12-20T11:16:23;0.90;;;0.50;;
15006;SDS011;7599;50.748;13.142;2023-12-20T11:19:31;0.90;;;0.55;;
15006;SDS011;7599;50.748;13.142;2023-12-20T11:22:34;1.45;;;0.70;;
15006;SDS011;7599;50.748;13.142;2023-12-20T11:25:48;2.03;;;0.60;;
15006;SDS011;7599;50.748;13.142;2023-12-20T11:28:51;3.30;;;0.63;;
15006;SDS011;7599;50.748;13.142;2023-12-20T11:31:54;1.13;;;0.50;;
15006;SDS011;7599;50.748;13.142;2023-12-20T11:34:58;1.25;;;0.60;;
15006;SDS011;7599;50.748;13.142;2023-12-20T11:38:02;0.95;;;0.40;;
15006;SDS011;7599;50.748;13.142;2023-12-20T11:41:06;1.58;;;0.50;;
15006;SDS011;7599;50.748;13.142;2023-12-20T11:44:09;0.77;;;0.60;;
15006;SDS011;7599;50.748;13.142;2023-12-20T11:47:12;1.25;;;0.50;;
15006;SDS011;7599;50.748;13.142;2023-12-20T11:50:18;0.50;;;0.38;;
15006;SDS011;7599;50.748;13.142;2023-12-20T11:53:21;1.10;;;0.47;;
15006;SDS011;7599;50.748;13.142;2023-12-20T11:56:24;1.25;;;0.60;;
15006;SDS011;7599;50.748;13.142;2023-12-20T11:59:26;1.40;;;0.50;;
15006;SDS011;7599;50.748;13.142;2023-12-20T12:02:29;0.60;;;0.50;;
15006;SDS011;7599;50.748;13.142;2023-12-20T12:05:34;2.47;;;0.50;;
15006;SDS011;7599;50.748;13.142;2023-12-20T12:08:37;1.50;;;0.82;;
15006;SDS011;7599;50.748;13.142;2023-12-20T12:11:40;0.95;;;0.50;;
15006;SDS011;7599;50.748;13.142;2023-12-20T12:14:42;0.68;;;0.50;;
15006;SDS011;7599;50.748;13.142;2023-12-20T12:17:52;1.33;;;0.57;;
15006;SDS011;7599;50.748;13.142;2023-12-20T12:21:01;1.00;;;0.50;;
15006;SDS011;7599;50.748;13.142;2023-12-20T12:24:16;0.93;;;0.40;;
15006;SDS011;7599;50.748;13.142;2023-12-20T12:27:23;1.27;;;0.50;;
15006;SDS011;7599;50.748;13.142;2023-12-20T12:30:25;1.00;;;0.43;;
15006;SDS011;7599;50.748;13.142;2023-12-20T12:33:35;0.93;;;0.55;;
15006;SDS011;7599;50.748;13.142;2023-12-20T12:36:40;0.75;;;0.45;;
15006;SDS011;7599;50.748;13.142;2023-12-20T12:39:44;0.60;;;0.57;;
15006;SDS011;7599;50.748;13.142;2023-12-20T12:42:49;2.97;;;0.50;;
15006;SDS011;7599;50.748;13.142;2023-12-20T12:45:52;1.40;;;0.60;;
15006;SDS011;7599;50.748;13.142;2023-12-20T12:48:56;0.98;;;0.52;;
15006;SDS011;7599;50.748;13.142;2023-12-20T12:52:14;0.57;;;0.50;;
15006;SDS011;7599;50.748;13.142;2023-12-20T12:55:17;1.15;;;0.43;;
15006;SDS011;7599;50.748;13.142;2023-12-20T12:58:26;1.08;;;0.40;;
15006;SDS011;7599;50.748;13.142;2023-12-20T13:01:28;1.30;;;0.47;;
15006;SDS011;7599;50.748;13.142;2023-12-20T13:04:31;0.52;;;0.32;;
15006;SDS011;7599;50.748;13.142;2023-12-20T13:07:36;1.67;;;0.47;;
15006;SDS011;7599;50.748;13.142;2023-12-20T13:10:41;1.15;;;0.60;;
15006;SDS011;7599;50.748;13.142;2023-12-20T13:13:48;0.82;;;0.47;;
15006;SDS011;7599;50.748;13.142;2023-12-20T13:17:02;0.90;;;0.50;;
15006;SDS011;7599;50.748;13.142;2023-12-20T13:20:07;0.95;;;0.40;;
15006;SDS011;7599;50.748;13.142;2023-12-20T13:23:11;0.52;;;0.45;;
15006;SDS011;7599;50.748;13.142;2023-12-20T13:26:14;1.08;;;0.52;;
15006;SDS011;7599;50.748;13.142;2023-12-20T13:29:17;1.60;;;0.55;;
15006;SDS011;7599;50.748;13.142;2023-12-20T13:32:20;0.40;;;0.30;;
15006;SDS011;7599;50.748;13.142;2023-12-20T13:35:22;0.68;;;0.50;;
15006;SDS011;7599;50.748;13.142;2023-12-20T13:38:26;0.50;;;0.32;;
15006;SDS011;7599;50.748;13.142;2023-12-20T13:41:29;0.65;;;0.40;;
15006;SDS011;7599;50.748;13.142;2023-12-20T13:44:31;0.82;;;0.52;;
15006;SDS011;7599;50.748;13.142;2023-12-20T13:47:35;1.10;;;0.50;;
15006;SDS011;7599;50.748;13.142;2023-12-20T13:50:38;1.17;;;0.50;;
15006;SDS011;7599;50.748;13.142;2023-12-20T13:53:41;1.35;;;0.52;;
15006;SDS011;7599;50.748;13.142;2023-12-20T13:56:44;1.02;;;0.52;;
15006;SDS011;7599;50.748;13.142;2023-12-20T14:00:06;0.57;;;0.38;;
15006;SDS011;7599;50.748;13.142;2023-12-20T14:03:15;0.88;;;0.70;;
15006;SDS011;7599;50.748;13.142;2023-12-20T14:06:19;0.93;;;0.40;;
15006;SDS011;7599;50.748;13.142;2023-12-20T14:12:25;0.50;;;0.32;;
15006;SDS011;7599;50.748;13.142;2023-12-20T14:15:28;1.42;;;0.50;;
15006;SDS011;7599;50.748;13.142;2023-12-20T14:18:30;1.20;;;0.60;;
15006;SDS011;7599;50.748;13.142;2023-12-20T14:21:33;0.40;;;0.40;;
15006;SDS011;7599;50.748;13.142;2023-12-20T14:24:37;1.20;;;0.50;;
15006;SDS011;7599;50.748;13.142;2023-12-20T14:27:40;0.73;;;0.57;;
15006;SDS011;7599;50.748;13.142;2023-12-20T14:30:46;0.68;;;0.40;;
15006;SDS011;7599;50.748;13.142;2023-12-20T14:33:50;1.42;;;0.52;;
15006;SDS011;7599;50.748;13.142;2023-12-20T14:36:54;1.13;;;0.50;;
15006;SDS011;7599;50.748;13.142;2023-12-20T14:39:59;0.52;;;0.47;;
15006;SDS011;7599;50.748;13.142;2023-12-20T14:43:04;1.13;;;0.60;;
15006;SDS011;7599;50.748;13.142;2023-12-20T14:46:07;1.33;;;0.82;;
15006;SDS011;7599;50.748;13.142;2023-12-20T14:49:10;1.90;;;0.70;;
15006;SDS011;7599;50.748;13.142;2023-12-20T14:52:13;1.63;;;0.70;;
15006;SDS011;7599;50.748;13.142;2023-12-20T14:55:32;1.27;;;0.70;;
15006;SDS011;7599;50.748;13.142;2023-12-20T14:58:35;1.25;;;0.70;;
15006;SDS011;7599;50.748;13.142;2023-12-20T15:01:38;1.15;;;0.63;;
15006;SDS011;7599;50.748;13.142;2023-12-20T15:04:47;1.00;;;0.60;;
15006;SDS011;7599;50.748;13.142;2023-12-20T15:07:52;1.70;;;0.50;;
15006;SDS011;7599;50.748;13.142;2023-12-20T15:10:56;2.22;;;0.80;;
15006;SDS011;7599;50.748;13.142;2023-12-20T15:13:58;1.45;;;0.80;;
15006;SDS011;7599;50.748;13.142;2023-12-20T15:17:02;1.13;;;0.70;;
15006;SDS011;7599;50.748;13.142;2023-12-20T15:20:06;1.58;;;0.60;;
15006;SDS011;7599;50.748;13.142;2023-12-20T15:23:11;1.35;;;0.65;;
15006;SDS011;7599;50.748;13.142;2023-12-20T15:26:15;1.45;;;0.75;;
15006;SDS011;7599;50.748;13.142;2023-12-20T15:29:18;1.63;;;0.80;;
15006;SDS011;7599;50.748;13.142;2023-12-20T15:32:21;2.15;;;0.70;;
15006;SDS011;7599;50.748;13.142;2023-12-20T15:35:23;1.90;;;0.80;;
15006;SDS011;7599;50.748;13.142;2023-12-20T15:38:26;1.45;;;0.80;;
15006;SDS011;7599;50.748;13.142;2023-12-20T15:41:30;2.22;;;0.80;;
15006;SDS011;7599;50.748;13.142;2023-12-20T15:44:32;2.80;;;0.98;;
15006;SDS011;7599;50.748;13.142;2023-12-20T15:47:35;1.33;;;0.70;;
15006;SDS011;7599;50.748;13.142;2023-12-20T15:50:38;1.52;;;0.80;;
15006;SDS011;7599;50.748;13.142;2023-12-20T15:53:41;0.73;;;0.50;;
15006;SDS011;7599;50.748;13.142;2023-12-20T15:56:45;1.50;;;0.50;;
15006;SDS011;7599;50.748;13.142;2023-12-20T15:59:49;1.15;;;0.75;;
15006;SDS011;7599;50.748;13.142;2023-12-20T16:02:52;3.80;;;0.75;;
15006;SDS011;7599;50.748;13.142;2023-12-20T16:05:55;1.45;;;0.60;;
15006;SDS011;7599;50.748;13.142;2023-12-20T16:08:59;1.85;;;0.70;;
15006;SDS011;7599;50.748;13.142;2023-12-20T16:12:04;2.10;;;0.70;;
15006;SDS011;7599;50.748;13.142;2023-12-20T16:15:07;0.70;;;0.60;;
15006;SDS011;7599;50.748;13.142;2023-12-20T16:18:10;0.77;;;0.63;;
15006;SDS011;7599;50.748;13.142;2023-12-20T16:21:13;0.95;;;0.50;;
15006;SDS011;7599;50.748;13.142;2023-12-20T16:24:15;1.33;;;0.60;;
15006;SDS011;7599;50.748;13.142;2023-12-20T16:27:19;1.75;;;0.70;;
15006;SDS011;7599;50.748;13.142;2023-12-20T16:30:21;1.88;;;0.70;;
15006;SDS011;7599;50.748;13.142;2023-12-20T16:33:24;1.92;;;0.70;;
15006;SDS011;7599;50.748;13.142;2023-12-20T16:36:27;1.67;;;0.80;;
15006;SDS011;7599;50.748;13.142;2023-12-20T16:39:50;1.02;;;0.70;;
15006;SDS011;7599;50.748;13.142;2023-12-20T16:42:54;1.65;;;0.80;;
15006;SDS011;7599;50.748;13.142;2023-12-20T16:49:45;1.52;;;0.70;;
15006;SDS011;7599;50.748;13.142;2023-12-20T16:52:48;0.75;;;0.50;;
15006;SDS011;7599;50.748;13.142;2023-12-20T16:55:52;1.50;;;0.70;;
15006;SDS011;7599;50.748;13.142;2023-12-20T16:58:56;1.30;;;0.80;;
15006;SDS011;7599;50.748;13.142;2023-12-20T17:01:59;1.27;;;0.80;;
15006;SDS011;7599;50.748;13.142;2023-12-20T17:05:03;1.33;;;0.75;;
15006;SDS011;7599;50.748;13.142;2023-12-20T17:08:06;1.90;;;0.70;;
15006;SDS011;7599;50.748;13.142;2023-12-20T17:11:11;1.17;;;0.68;;
15006;SDS011;7599;50.748;13.142;2023-12-20T17:14:15;1.38;;;0.80;;
15006;SDS011;7599;50.748;13.142;2023-12-20T17:17:18;2.03;;;0.60;;
15006;SDS011;7599;50.748;13.142;2023-12-20T17:20:21;2.05;;;0.73;;
15006;SDS011;7599;50.748;13.142;2023-12-20T17:23:24;1.45;;;0.60;;
15006;SDS011;7599;50.748;13.142;2023-12-20T17:26:26;1.42;;;0.52;;
15006;SDS011;7599;50.748;13.142;2023-12-20T17:29:30;2.88;;;0.77;;
15006;SDS011;7599;50.748;13.142;2023-12-20T17:32:33;1.15;;;0.80;;
15006;SDS011;7599;50.748;13.142;2023-12-20T17:35:38;1.67;;;0.60;;
15006;SDS011;7599;50.748;13.142;2023-12-20T17:38:41;1.45;;;0.88;;
15006;SDS011;7599;50.748;13.142;2023-12-20T17:41:44;1.15;;;0.60;;
15006;SDS011;7599;50.748;13.142;2023-12-20T17:44:48;2.03;;;0.70;;
15006;SDS011;7599;50.748;13.142;2023-12-20T17:47:51;1.10;;;0.70;;
15006;SDS011;7599;50.748;13.142;2023-12-20T17:50:54;1.02;;;0.57;;
15006;SDS011;7599;50.748;13.142;2023-12-20T17:54:00;1.13;;;0.73;;
15006;SDS011;7599;50.748;13.142;2023-12-20T17:57:04;1.00;;;0.50;;
15006;SDS011;7599;50.748;13.142;2023-12-20T18:00:11;0.98;;;0.60;;
15006;SDS011;7599;50.748;13.142;2023-12-20T18:03:16;1.20;;;0.70;;
15006;SDS011;7599;50.748;13.142;2023-12-20T18:06:18;0.98;;;0.43;;
15006;SDS011;7599;50.748;13.142;2023-12-20T18:09:21;1.63;;;0.60;;
15006;SDS011;7599;50.748;13.142;2023-12-20T18:12:24;1.17;;;0.65;;
15006;SDS011;7599;50.748;13.142;2023-12-20T18:15:28;1.75;;;0.70;;
15006;SDS011;7599;50.748;13.142;2023-12-20T18:18:30;0.77;;;0.60;;
15006;SDS011;7599;50.748;13.142;2023-12-20T18:21:33;0.93;;;0.65;;
15006;SDS011;7599;50.748;13.142;2023-12-20T18:24:35;0.65;;;0.50;;
15006;SDS011;7599;50.748;13.142;2023-12-20T18:27:38;1.30;;;0.52;;
15006;SDS011;7599;50.748;13.142;2023-12-20T18:30:42;0.90;;;0.60;;
15006;SDS011;7599;50.748;13.142;2023-12-20T18:33:44;2.25;;;0.60;;
15006;SDS011;7599;50.748;13.142;2023-12-20T18:36:47;2.78;;;0.60;;
15006;SDS011;7599;50.748;13.142;2023-12-20T18:39:50;0.98;;;0.65;;
15006;SDS011;7599;50.748;13.142;2023-12-20T18:42:52;0.88;;;0.65;;
15006;SDS011;7599;50.748;13.142;2023-12-20T18:45:57;1.00;;;0.50;;
15006;SDS011;7599;50.748;13.142;2023-12-20T18:49:00;0.82;;;0.50;;
15006;SDS011;7599;50.748;13.142;2023-12-20T18:52:04;0.80;;;0.60;;
15006;SDS011;7599;50.748;13.142;2023-12-20T18:55:07;0.93;;;0.60;;
15006;SDS011;7599;50.748;13.142;2023-12-20T18:58:10;0.50;;;0.40;;
15006;SDS011;7599;50.748;13.142;2023-12-20T19:01:16;1.00;;;0.60;;
15006;SDS011;7599;50.748;13.142;2023-12-20T19:04:18;1.30;;;0.60;;
15006;SDS011;7599;50.748;13.142;2023-12-20T19:07:22;0.75;;;0.60;;
15006;SDS011;7599;50.748;13.142;2023-12-20T19:10:24;0.73;;;0.55;;
15006;SDS011;7599;50.748;13.142;2023-12-20T19:13:27;0.98;;;0.43;;
15006;SDS011;7599;50.748;13.142;2023-12-20T19:16:34;0.73;;;0.50;;
15006;SDS011;7599;50.748;13.142;2023-12-20T19:19:37;0.90;;;0.50;;
15006;SDS011;7599;50.748;13.142;2023-12-20T19:22:39;0.68;;;0.63;;
15006;SDS011;7599;50.748;13.142;2023-12-20T19:25:42;0.88;;;0.70;;
15006;SDS011;7599;50.748;13.142;2023-12-20T19:28:45;1.05;;;0.65;;
15006;SDS011;7599;50.748;13.142;2023-12-20T19:31:49;0.70;;;0.50;;
15006;SDS011;7599;50.748;13.142;2023-12-20T19:34:53;1.63;;;0.68;;
15006;SDS011;7599;50.748;13.142;2023-12-20T19:37:56;0.85;;;0.52;;
15006;SDS011;7599;50.748;13.142;2023-12-20T19:40:59;1.00;;;0.60;;
15006;SDS011;7599;50.748;13.142;2023-12-20T19:44:01;1.77;;;0.52;;
15006;SDS011;7599;50.748;13.142;2023-12-20T19:47:05;0.73;;;0.40;;
15006;SDS011;7599;50.748;13.142;2023-12-20T19:50:08;0.77;;;0.50;;
15006;SDS011;7599;50.748;13.142;2023-12-20T19:53:12;0.57;;;0.47;;
15006;SDS011;7599;50.748;13.142;2023-12-20T19:56:14;0.90;;;0.60;;
15006;SDS011;7599;50.748;13.142;2023-12-20T19:59:17;1.10;;;0.55;;
15006;SDS011;7599;50.748;13.142;2023-12-20T20:02:21;0.80;;;0.52;;
15006;SDS011;7599;50.748;13.142;2023-12-20T20:05:24;1.60;;;0.50;;